createdAt,value
2015-08-11T00:00:04.331Z,74295
2015-08-11T00:00:16.721Z,74300
2015-08-11T00:00:29.096Z,74291
2015-08-11T00:00:41.489Z,74299
2015-08-11T00:00:53.895Z,74296
2015-08-11T00:01:06.301Z,74295
2015-08-11T00:01:18.708Z,74303
2015-08-11T00:01:31.114Z,74296
2015-08-11T00:01:43.522Z,74295
2015-08-11T00:01:55.928Z,74298
2015-08-11T00:02:08.335Z,74297
2015-08-11T00:02:20.725Z,74299
2015-08-11T00:02:33.147Z,74293
2015-08-11T00:02:45.556Z,74297
2015-08-11T00:02:57.963Z,74300
2015-08-11T00:03:10.353Z,74301
2015-08-11T00:03:22.775Z,74300
2015-08-11T00:03:35.150Z,74292
2015-08-11T00:03:47.543Z,74298
2015-08-11T00:03:59.918Z,74294
2015-08-11T00:04:12.277Z,74294
2015-08-11T00:04:24.668Z,74292
2015-08-11T00:04:37.058Z,74291
2015-08-11T00:04:49.434Z,74298
2015-08-11T00:05:01.809Z,74294
2015-08-11T00:05:14.200Z,74298
2015-08-11T00:05:26.575Z,74290
2015-08-11T00:05:38.950Z,74292
2015-08-11T00:05:51.328Z,74286
2015-08-11T00:06:03.703Z,74292
2015-08-11T00:06:16.078Z,74285
2015-08-11T00:06:28.469Z,74291
2015-08-11T00:06:40.844Z,74288
2015-08-11T00:06:53.220Z,74289
2015-08-11T00:07:05.595Z,74296
2015-08-11T00:07:17.970Z,74288
2015-08-11T00:07:30.345Z,74291
2015-08-11T00:07:42.720Z,74290
2015-08-11T00:07:55.097Z,74287
2015-08-11T00:08:07.472Z,74291
2015-08-11T00:08:19.847Z,74289
2015-08-11T00:08:32.222Z,74291
2015-08-11T00:08:44.597Z,74286
2015-08-11T00:08:56.974Z,74291
2015-08-11T00:09:09.349Z,74290
2015-08-11T00:09:21.739Z,74284
2015-08-11T00:09:34.130Z,74291
2015-08-11T00:09:46.505Z,74287
2015-08-11T00:09:58.898Z,74292
2015-08-11T00:10:11.289Z,74287
2015-08-11T00:10:23.695Z,74289
2015-08-11T00:10:36.102Z,74288
2015-08-11T00:10:48.523Z,74288
2015-08-11T00:11:00.915Z,74291
2015-08-11T00:11:13.337Z,74292
2015-08-11T00:11:25.743Z,74291
2015-08-11T00:11:38.134Z,74290
2015-08-11T00:11:49.821Z,74291
2015-08-11T00:12:02.245Z,74287
2015-08-11T00:12:14.651Z,74288
2015-08-11T00:12:27.058Z,74285
2015-08-11T00:12:39.464Z,74289
2015-08-11T00:12:51.886Z,74288
2015-08-11T00:13:03.561Z,74290
2015-08-11T00:13:15.936Z,74287
2015-08-11T00:13:28.311Z,74288
2015-08-11T00:13:40.529Z,74290
2015-08-11T00:13:52.904Z,74286
2015-08-11T00:14:05.280Z,74291
2015-08-11T00:14:17.655Z,74288
2015-08-11T00:14:30.030Z,74289
2015-08-11T00:14:42.468Z,74288
2015-08-11T00:14:54.843Z,74290
2015-08-11T00:15:07.221Z,74291
2015-08-11T00:15:19.596Z,74290
2015-08-11T00:15:31.971Z,74291
2015-08-11T00:15:44.362Z,74294
2015-08-11T00:15:56.737Z,74288
2015-08-11T00:16:09.128Z,74291
2015-08-11T00:16:21.488Z,74289
2015-08-11T00:16:33.863Z,74290
2015-08-11T00:16:46.238Z,74291
2015-08-11T00:16:58.613Z,74288
2015-08-11T00:17:10.990Z,74287
2015-08-11T00:17:23.365Z,74290
2015-08-11T00:17:35.755Z,74287
2015-08-11T00:17:48.130Z,74288
2015-08-11T00:18:00.505Z,74285
2015-08-11T00:18:12.882Z,74284
2015-08-11T00:18:25.273Z,74284
2015-08-11T00:18:37.648Z,74284
2015-08-11T00:18:50.023Z,74282
2015-08-11T00:19:02.413Z,74289
2015-08-11T00:19:14.806Z,74279
2015-08-11T00:19:27.197Z,74286
2015-08-11T00:19:39.572Z,74293
2015-08-11T00:19:51.947Z,74278
2015-08-11T00:20:04.353Z,74288
2015-08-11T00:20:16.762Z,74284
2015-08-11T00:20:29.168Z,74288
2015-08-11T00:20:41.590Z,74279
2015-08-11T00:20:53.981Z,74282
2015-08-11T00:21:06.387Z,74287
2015-08-11T00:21:18.779Z,74283
2015-08-11T00:21:31.185Z,74290
2015-08-11T00:21:43.607Z,74281
2015-08-11T00:21:56.013Z,74285
2015-08-11T00:22:08.404Z,74286
2015-08-11T00:22:20.781Z,74286
2015-08-11T00:22:33.156Z,74287
2015-08-11T00:22:45.531Z,74282
2015-08-11T00:22:57.906Z,74288
2015-08-11T00:23:10.281Z,74290
2015-08-11T00:23:22.658Z,74287
2015-08-11T00:23:35.017Z,74289
2015-08-11T00:23:47.408Z,74283
2015-08-11T00:23:59.783Z,74288
2015-08-11T00:24:12.158Z,74287
2015-08-11T00:24:24.519Z,74294
2015-08-11T00:24:36.894Z,74285
2015-08-11T00:24:49.254Z,74286
2015-08-11T00:25:01.644Z,74291
2015-08-11T00:25:14.019Z,74284
2015-08-11T00:25:26.396Z,74289
2015-08-11T00:25:38.771Z,74292
2015-08-11T00:25:51.146Z,74289
2015-08-11T00:26:03.521Z,74289
2015-08-11T00:26:15.912Z,74296
2015-08-11T00:26:28.289Z,74283
2015-08-11T00:26:40.679Z,74287
2015-08-11T00:26:53.054Z,74291
2015-08-11T00:27:05.429Z,74287
2015-08-11T00:27:17.804Z,74287
2015-08-11T00:27:30.181Z,74285
2015-08-11T00:27:42.556Z,74291
2015-08-11T00:27:54.931Z,74284
2015-08-11T00:28:07.322Z,74287
2015-08-11T00:28:19.713Z,74292
2015-08-11T00:28:32.090Z,74289
2015-08-11T00:28:44.480Z,74295
2015-08-11T00:28:56.855Z,74285
2015-08-11T00:29:09.262Z,74293
2015-08-11T00:29:21.668Z,74289
2015-08-11T00:29:34.092Z,74288
2015-08-11T00:29:46.482Z,74290
2015-08-11T00:29:58.904Z,74286
2015-08-11T00:30:11.295Z,74288
2015-08-11T00:30:23.701Z,74287
2015-08-11T00:30:36.109Z,74294
2015-08-11T00:30:48.531Z,74287
2015-08-11T00:31:00.906Z,74291
2015-08-11T00:31:13.281Z,74288
2015-08-11T00:31:25.656Z,74289
2015-08-11T00:31:38.033Z,74291
2015-08-11T00:31:50.408Z,74288
2015-08-11T00:32:02.783Z,74292
2015-08-11T00:32:15.158Z,74290
2015-08-11T00:32:27.549Z,74289
2015-08-11T00:32:39.207Z,74285
2015-08-11T00:32:51.582Z,74289
2015-08-11T00:33:03.957Z,74284
2015-08-11T00:33:16.332Z,74285
2015-08-11T00:33:28.707Z,74288
2015-08-11T00:33:41.084Z,74284
2015-08-11T00:33:53.475Z,74285
2015-08-11T00:34:05.850Z,74278
2015-08-11T00:34:18.225Z,74290
2015-08-11T00:34:30.600Z,74282
2015-08-11T00:34:42.977Z,74278
2015-08-11T00:34:55.352Z,74288
2015-08-11T00:35:07.727Z,74278
2015-08-11T00:35:20.117Z,74286
2015-08-11T00:35:32.492Z,74288
2015-08-11T00:35:44.869Z,74283
2015-08-11T00:35:57.260Z,74284
2015-08-11T00:36:09.635Z,74280
2015-08-11T00:36:22.010Z,74286
2015-08-11T00:36:34.401Z,74280
2015-08-11T00:36:46.793Z,74282
2015-08-11T00:36:59.184Z,74289
2015-08-11T00:37:11.574Z,74278
2015-08-11T00:37:23.965Z,74290
2015-08-11T00:37:36.356Z,74288
2015-08-11T00:37:48.748Z,74289
2015-08-11T00:38:01.139Z,74278
2015-08-11T00:38:13.561Z,74290
2015-08-11T00:38:25.951Z,74285
2015-08-11T00:38:38.373Z,74285
2015-08-11T00:38:50.782Z,74288
2015-08-11T00:39:03.172Z,74283
2015-08-11T00:39:15.578Z,74292
2015-08-11T00:39:28.000Z,74286
2015-08-11T00:39:40.375Z,74294
2015-08-11T00:39:52.752Z,74287
2015-08-11T00:40:05.127Z,74289
2015-08-11T00:40:17.502Z,74288
2015-08-11T00:40:29.893Z,74285
2015-08-11T00:40:42.268Z,74285
2015-08-11T00:40:54.645Z,74282
2015-08-11T00:41:07.020Z,74288
2015-08-11T00:41:19.395Z,74287
2015-08-11T00:41:31.770Z,74291
2015-08-11T00:41:44.145Z,74286
2015-08-11T00:41:56.522Z,74285
2015-08-11T00:42:08.897Z,74286
2015-08-11T00:42:21.272Z,74283
2015-08-11T00:42:33.663Z,74290
2015-08-11T00:42:46.038Z,74285
2015-08-11T00:42:58.415Z,74285
2015-08-11T00:43:10.790Z,74286
2015-08-11T00:43:23.149Z,74284
2015-08-11T00:43:35.524Z,74287
2015-08-11T00:43:47.899Z,74282
2015-08-11T00:44:00.292Z,74287
2015-08-11T00:44:12.667Z,74286
2015-08-11T00:44:25.026Z,74281
2015-08-11T00:44:37.401Z,74284
2015-08-11T00:44:49.776Z,74272
2015-08-11T00:45:02.153Z,74284
2015-08-11T00:45:13.825Z,74281
2015-08-11T00:45:26.215Z,74281
2015-08-11T00:45:38.590Z,74283
2015-08-11T00:45:50.981Z,74279
2015-08-11T00:46:03.358Z,74283
2015-08-11T00:46:15.764Z,74278
2015-08-11T00:46:28.155Z,74280
2015-08-11T00:46:40.561Z,74278
2015-08-11T00:46:52.983Z,74282
2015-08-11T00:47:05.376Z,74278
2015-08-11T00:47:17.782Z,74276
2015-08-11T00:47:30.188Z,74282
2015-08-11T00:47:42.579Z,74274
2015-08-11T00:47:54.985Z,74282
2015-08-11T00:48:07.393Z,74280
2015-08-11T00:48:19.815Z,74281
2015-08-11T00:48:32.237Z,74282
2015-08-11T00:48:44.612Z,74283
2015-08-11T00:48:56.987Z,74279
2015-08-11T00:49:09.364Z,74280
2015-08-11T00:49:21.755Z,74279
2015-08-11T00:49:34.130Z,74279
2015-08-11T00:49:46.505Z,74283
2015-08-11T00:49:58.880Z,74280
2015-08-11T00:50:11.257Z,74272
2015-08-11T00:50:23.647Z,74277
2015-08-11T00:50:36.022Z,74276
2015-08-11T00:50:48.397Z,74283
2015-08-11T00:51:00.788Z,74281
2015-08-11T00:51:13.165Z,74274
2015-08-11T00:51:25.540Z,74284
2015-08-11T00:51:37.915Z,74274
2015-08-11T00:51:50.290Z,74284
2015-08-11T00:52:02.665Z,74279
2015-08-11T00:52:15.042Z,74278
2015-08-11T00:52:27.417Z,74277
2015-08-11T00:52:39.792Z,74277
2015-08-11T00:52:52.167Z,74284
2015-08-11T00:53:04.542Z,74278
2015-08-11T00:53:16.935Z,74280
2015-08-11T00:53:29.310Z,74275
2015-08-11T00:53:41.669Z,74279
2015-08-11T00:53:54.044Z,74276
2015-08-11T00:54:06.419Z,74288
2015-08-11T00:54:18.796Z,74278
2015-08-11T00:54:31.171Z,74280
2015-08-11T00:54:43.562Z,74280
2015-08-11T00:54:55.968Z,74277
2015-08-11T00:55:08.343Z,74282
2015-08-11T00:55:20.735Z,74285
2015-08-11T00:55:33.110Z,74277
2015-08-11T00:55:45.517Z,74281
2015-08-11T00:55:57.923Z,74283
2015-08-11T00:56:09.626Z,74276
2015-08-11T00:56:22.050Z,74281
2015-08-11T00:56:34.456Z,74281
2015-08-11T00:56:46.862Z,74279
2015-08-11T00:56:58.566Z,74282
2015-08-11T00:57:10.987Z,74282
2015-08-11T00:57:23.410Z,74284
2015-08-11T00:57:35.817Z,74279
2015-08-11T00:57:47.504Z,74287
2015-08-11T00:57:59.895Z,74286
2015-08-11T00:58:12.270Z,74289
2015-08-11T00:58:24.647Z,74280
2015-08-11T00:58:37.022Z,74284
2015-08-11T00:58:49.397Z,74288
2015-08-11T00:59:01.772Z,74284
2015-08-11T00:59:14.147Z,74295
2015-08-11T00:59:26.524Z,74286
2015-08-11T00:59:38.899Z,74288
2015-08-11T00:59:51.274Z,74287
2015-08-11T01:00:03.649Z,74285
2015-08-11T01:00:15.305Z,74287
2015-08-11T01:00:27.683Z,74280
2015-08-11T01:00:40.058Z,74286
2015-08-11T01:00:52.449Z,74285
2015-08-11T01:01:04.824Z,74288
2015-08-11T01:01:17.199Z,74283
2015-08-11T01:01:29.575Z,74288
2015-08-11T01:01:41.950Z,74285
2015-08-11T01:01:54.325Z,74290
2015-08-11T01:02:06.700Z,74285
2015-08-11T01:02:19.090Z,74280
2015-08-11T01:02:31.467Z,74281
2015-08-11T01:02:43.842Z,74284
2015-08-11T01:02:56.217Z,74286
2015-08-11T01:03:08.592Z,74287
2015-08-11T01:03:20.967Z,74285
2015-08-11T01:03:33.344Z,74282
2015-08-11T01:03:45.735Z,74289
2015-08-11T01:03:58.125Z,74283
2015-08-11T01:04:10.500Z,74287
2015-08-11T01:04:22.891Z,74285
2015-08-11T01:04:35.378Z,74290
2015-08-11T01:04:47.769Z,74285
2015-08-11T01:05:00.175Z,74282
2015-08-11T01:05:12.597Z,74289
2015-08-11T01:05:24.988Z,74287
2015-08-11T01:05:37.395Z,74281
2015-08-11T01:05:49.801Z,74287
2015-08-11T01:06:02.208Z,74282
2015-08-11T01:06:14.598Z,74290
2015-08-11T01:06:26.989Z,74284
2015-08-11T01:06:39.241Z,74292
2015-08-11T01:06:51.647Z,74284
2015-08-11T01:07:04.038Z,74284
2015-08-11T01:07:16.444Z,74292
2015-08-11T01:07:28.100Z,74280
2015-08-11T01:07:40.477Z,74286
2015-08-11T01:07:52.868Z,74287
2015-08-11T01:08:05.243Z,74285
2015-08-11T01:08:17.618Z,74289
2015-08-11T01:08:30.008Z,74281
2015-08-11T01:08:42.385Z,74286
2015-08-11T01:08:54.760Z,74285
2015-08-11T01:09:07.151Z,74283
2015-08-11T01:09:19.542Z,74286
2015-08-11T01:09:31.917Z,74285
2015-08-11T01:09:44.294Z,74289
2015-08-11T01:09:56.669Z,74283
2015-08-11T01:10:09.059Z,74288
2015-08-11T01:10:21.450Z,74285
2015-08-11T01:10:33.825Z,74291
2015-08-11T01:10:46.202Z,74284
2015-08-11T01:10:58.577Z,74289
2015-08-11T01:11:10.952Z,74283
2015-08-11T01:11:23.327Z,74292
2015-08-11T01:11:35.702Z,74285
2015-08-11T01:11:47.376Z,74291
2015-08-11T01:11:59.751Z,74284
2015-08-11T01:12:12.126Z,74291
2015-08-11T01:12:24.501Z,74288
2015-08-11T01:12:36.876Z,74289
2015-08-11T01:12:49.268Z,74286
2015-08-11T01:13:01.690Z,74290
2015-08-11T01:13:14.065Z,74284
2015-08-11T01:13:26.472Z,74291
2015-08-11T01:13:38.847Z,74282
2015-08-11T01:13:51.239Z,74290
2015-08-11T01:14:03.614Z,74285
2015-08-11T01:14:16.005Z,74288
2015-08-11T01:14:28.411Z,74287
2015-08-11T01:14:40.833Z,74288
2015-08-11T01:14:53.226Z,74285
2015-08-11T01:15:05.647Z,74291
2015-08-11T01:15:18.054Z,74279
2015-08-11T01:15:30.460Z,74289
2015-08-11T01:15:42.866Z,74282
2015-08-11T01:15:55.274Z,74289
2015-08-11T01:16:07.681Z,74288
2015-08-11T01:16:20.087Z,74287
2015-08-11T01:16:32.509Z,74288
2015-08-11T01:16:44.165Z,74290
2015-08-11T01:16:56.558Z,74292
2015-08-11T01:17:08.933Z,74287
2015-08-11T01:17:21.308Z,74287
2015-08-11T01:17:33.683Z,74289
2015-08-11T01:17:46.058Z,74287
2015-08-11T01:17:58.435Z,74284
2015-08-11T01:18:10.825Z,74290
2015-08-11T01:18:23.200Z,74291
2015-08-11T01:18:35.575Z,74288
2015-08-11T01:18:47.950Z,74289
2015-08-11T01:19:00.343Z,74284
2015-08-11T01:19:12.718Z,74283
2015-08-11T01:19:25.093Z,74288
2015-08-11T01:19:37.468Z,74280
2015-08-11T01:19:49.843Z,74291
2015-08-11T01:20:02.220Z,74283
2015-08-11T01:20:14.611Z,74288
2015-08-11T01:20:26.970Z,74290
2015-08-11T01:20:39.345Z,74283
2015-08-11T01:20:51.720Z,74291
2015-08-11T01:21:04.097Z,74283
2015-08-11T01:21:16.488Z,74288
2015-08-11T01:21:28.847Z,74285
2015-08-11T01:21:41.222Z,74286
2015-08-11T01:21:53.597Z,74293
2015-08-11T01:22:05.974Z,74284
2015-08-11T01:22:18.349Z,74290
2015-08-11T01:22:30.724Z,74286
2015-08-11T01:22:43.115Z,74290
2015-08-11T01:22:55.505Z,74286
2015-08-11T01:23:07.897Z,74283
2015-08-11T01:23:20.287Z,74287
2015-08-11T01:23:32.662Z,74287
2015-08-11T01:23:45.084Z,74291
2015-08-11T01:23:57.475Z,74285
2015-08-11T01:24:09.900Z,74290
2015-08-11T01:24:22.306Z,74285
2015-08-11T01:24:34.712Z,74290
2015-08-11T01:24:47.119Z,74284
2015-08-11T01:24:59.509Z,74285
2015-08-11T01:25:11.916Z,74284
2015-08-11T01:25:24.338Z,74282
2015-08-11T01:25:36.745Z,74281
2015-08-11T01:25:49.151Z,74286
2015-08-11T01:26:01.557Z,74287
2015-08-11T01:26:13.935Z,74285
2015-08-11T01:26:26.310Z,74285
2015-08-11T01:26:38.685Z,74285
2015-08-11T01:26:51.060Z,74285
2015-08-11T01:27:03.435Z,74283
2015-08-11T01:27:15.812Z,74282
2015-08-11T01:27:28.187Z,74280
2015-08-11T01:27:40.578Z,74283
2015-08-11T01:27:52.953Z,74284
2015-08-11T01:28:04.625Z,74284
2015-08-11T01:28:17.002Z,74281
2015-08-11T01:28:29.377Z,74282
2015-08-11T01:28:41.752Z,74284
2015-08-11T01:28:54.127Z,74279
2015-08-11T01:29:06.517Z,74279
2015-08-11T01:29:18.893Z,74279
2015-08-11T01:29:31.284Z,74282
2015-08-11T01:29:43.659Z,74279
2015-08-11T01:29:55.331Z,74282
2015-08-11T01:30:07.706Z,74282
2015-08-11T01:30:20.084Z,74280
2015-08-11T01:30:32.474Z,74282
2015-08-11T01:30:44.849Z,74281
2015-08-11T01:30:57.224Z,74280
2015-08-11T01:31:09.615Z,74278
2015-08-11T01:31:21.992Z,74282
2015-08-11T01:31:34.367Z,74282
2015-08-11T01:31:46.742Z,74279
2015-08-11T01:31:59.133Z,74284
2015-08-11T01:32:11.523Z,74283
2015-08-11T01:32:23.899Z,74282
2015-08-11T01:32:36.290Z,74281
2015-08-11T01:32:48.680Z,74282
2015-08-11T01:33:01.055Z,74282
2015-08-11T01:33:13.477Z,74282
2015-08-11T01:33:25.901Z,74285
2015-08-11T01:33:38.307Z,74279
2015-08-11T01:33:50.714Z,74282
2015-08-11T01:34:02.401Z,74281
2015-08-11T01:34:14.807Z,74279
2015-08-11T01:34:27.216Z,74282
2015-08-11T01:34:39.622Z,74280
2015-08-11T01:34:52.059Z,74279
2015-08-11T01:35:04.450Z,74281
2015-08-11T01:35:16.856Z,74281
2015-08-11T01:35:29.280Z,74283
2015-08-11T01:35:41.655Z,74281
2015-08-11T01:35:54.030Z,74283
2015-08-11T01:36:06.405Z,74282
2015-08-11T01:36:18.780Z,74281
2015-08-11T01:36:31.157Z,74280
2015-08-11T01:36:43.532Z,74280
2015-08-11T01:36:55.907Z,74280
2015-08-11T01:37:08.282Z,74280
2015-08-11T01:37:20.673Z,74284
2015-08-11T01:37:33.051Z,74278
2015-08-11T01:37:45.426Z,74283
2015-08-11T01:37:57.801Z,74280
2015-08-11T01:38:10.176Z,74283
2015-08-11T01:38:22.566Z,74279
2015-08-11T01:38:34.958Z,74283
2015-08-11T01:38:47.333Z,74280
2015-08-11T01:38:59.708Z,74281
2015-08-11T01:39:12.083Z,74283
2015-08-11T01:39:24.458Z,74282
2015-08-11T01:39:36.836Z,74283
2015-08-11T01:39:49.211Z,74282
2015-08-11T01:40:01.586Z,74281
2015-08-11T01:40:13.977Z,74280
2015-08-11T01:40:26.367Z,74281
2015-08-11T01:40:38.743Z,74285
2015-08-11T01:40:51.118Z,74282
2015-08-11T01:41:03.493Z,74282
2015-08-11T01:41:15.868Z,74279
2015-08-11T01:41:28.243Z,74281
2015-08-11T01:41:40.636Z,74282
2015-08-11T01:41:53.027Z,74281
2015-08-11T01:42:05.402Z,74281
2015-08-11T01:42:17.808Z,74284
2015-08-11T01:42:30.214Z,74283
2015-08-11T01:42:41.905Z,74283
2015-08-11T01:42:54.311Z,74283
2015-08-11T01:43:06.733Z,74283
2015-08-11T01:43:19.155Z,74283
2015-08-11T01:43:31.545Z,74282
2015-08-11T01:43:43.952Z,74282
2015-08-11T01:43:56.343Z,74282
2015-08-11T01:44:08.749Z,74284
2015-08-11T01:44:21.171Z,74283
2015-08-11T01:44:33.577Z,74283
2015-08-11T01:44:45.986Z,74282
2015-08-11T01:44:58.392Z,74282
2015-08-11T01:45:10.798Z,74282
2015-08-11T01:45:23.173Z,74281
2015-08-11T01:45:35.548Z,74281
2015-08-11T01:45:47.941Z,74281
2015-08-11T01:46:00.316Z,74283
2015-08-11T01:46:12.691Z,74279
2015-08-11T01:46:25.066Z,74279
2015-08-11T01:46:37.441Z,74280
2015-08-11T01:46:49.819Z,74282
2015-08-11T01:47:02.178Z,74282
2015-08-11T01:47:14.553Z,74282
2015-08-11T01:47:26.913Z,74280
2015-08-11T01:47:39.288Z,74279
2015-08-11T01:47:51.664Z,74280
2015-08-11T01:48:04.039Z,74275
2015-08-11T01:48:16.429Z,74280
2015-08-11T01:48:28.804Z,74279
2015-08-11T01:48:41.179Z,74278
2015-08-11T01:48:53.556Z,74276
2015-08-11T01:49:05.931Z,74280
2015-08-11T01:49:18.322Z,74278
2015-08-11T01:49:29.978Z,74280
2015-08-11T01:49:42.369Z,74281
2015-08-11T01:49:54.027Z,74280
2015-08-11T01:50:06.402Z,74278
2015-08-11T01:50:18.777Z,74275
2015-08-11T01:50:31.152Z,74277
2015-08-11T01:50:43.543Z,74278
2015-08-11T01:50:55.920Z,74276
2015-08-11T01:51:08.310Z,74276
2015-08-11T01:51:20.701Z,74280
2015-08-11T01:51:33.091Z,74279
2015-08-11T01:51:45.482Z,74281
2015-08-11T01:51:57.876Z,74279
2015-08-11T01:52:10.282Z,74281
2015-08-11T01:52:22.673Z,74278
2015-08-11T01:52:35.094Z,74280
2015-08-11T01:52:47.516Z,74280
2015-08-11T01:52:59.924Z,74280
2015-08-11T01:53:12.361Z,74281
2015-08-11T01:53:24.767Z,74279
2015-08-11T01:53:37.174Z,74277
2015-08-11T01:53:49.595Z,74278
2015-08-11T01:54:01.988Z,74278
2015-08-11T01:54:14.379Z,74277
2015-08-11T01:54:26.816Z,74277
2015-08-11T01:54:39.191Z,74277
2015-08-11T01:54:51.566Z,74276
2015-08-11T01:55:03.943Z,74278
2015-08-11T01:55:16.318Z,74278
2015-08-11T01:55:28.693Z,74276
2015-08-11T01:55:41.068Z,74275
2015-08-11T01:55:53.443Z,74274
2015-08-11T01:56:05.820Z,74276
2015-08-11T01:56:18.195Z,74276
2015-08-11T01:56:30.586Z,74278
2015-08-11T01:56:42.961Z,74274
2015-08-11T01:56:55.336Z,74273
2015-08-11T01:57:07.010Z,74273
2015-08-11T01:57:19.385Z,74274
2015-08-11T01:57:31.760Z,74272
2015-08-11T01:57:44.150Z,74272
2015-08-11T01:57:56.525Z,74273
2015-08-11T01:58:08.902Z,74277
2015-08-11T01:58:21.277Z,74272
2015-08-11T01:58:33.652Z,74276
2015-08-11T01:58:46.027Z,74277
2015-08-11T01:58:58.402Z,74273
2015-08-11T01:59:10.795Z,74274
2015-08-11T01:59:23.170Z,74275
2015-08-11T01:59:35.545Z,74276
2015-08-11T01:59:47.920Z,74272
2015-08-11T02:00:00.295Z,74278
2015-08-11T02:00:12.688Z,74276
2015-08-11T02:00:25.063Z,74277
2015-08-11T02:00:37.453Z,74277
2015-08-11T02:00:49.844Z,74273
2015-08-11T02:01:02.219Z,74275
2015-08-11T02:01:14.627Z,74278
2015-08-11T02:01:27.002Z,74276
2015-08-11T02:01:39.408Z,74276
2015-08-11T02:01:51.815Z,74279
2015-08-11T02:02:04.236Z,74277
2015-08-11T02:02:16.488Z,74279
2015-08-11T02:02:28.895Z,74272
2015-08-11T02:02:41.301Z,74275
2015-08-11T02:02:53.707Z,74276
2015-08-11T02:03:06.113Z,74273
2015-08-11T02:03:18.537Z,74280
2015-08-11T02:03:30.944Z,74275
2015-08-11T02:03:43.334Z,74281
2015-08-11T02:03:55.022Z,74275
2015-08-11T02:04:07.428Z,74278
2015-08-11T02:04:19.852Z,74280
2015-08-11T02:04:32.227Z,74276
2015-08-11T02:04:44.602Z,74280
2015-08-11T02:04:56.977Z,74276
2015-08-11T02:05:09.352Z,74279
2015-08-11T02:05:21.729Z,74280
2015-08-11T02:05:34.104Z,74277
2015-08-11T02:05:46.479Z,74281
2015-08-11T02:05:58.869Z,74280
2015-08-11T02:06:11.244Z,74277
2015-08-11T02:06:23.637Z,74282
2015-08-11T02:06:36.012Z,74273
2015-08-11T02:06:48.387Z,74281
2015-08-11T02:07:00.762Z,74280
2015-08-11T02:07:13.137Z,74276
2015-08-11T02:07:25.530Z,74280
2015-08-11T02:07:37.936Z,74278
2015-08-11T02:07:50.295Z,74279
2015-08-11T02:08:02.670Z,74278
2015-08-11T02:08:15.045Z,74272
2015-08-11T02:08:27.422Z,74281
2015-08-11T02:08:39.797Z,74270
2015-08-11T02:08:52.188Z,74279
2015-08-11T02:09:04.563Z,74276
2015-08-11T02:09:16.938Z,74278
2015-08-11T02:09:29.315Z,74282
2015-08-11T02:09:41.706Z,74272
2015-08-11T02:09:54.081Z,74278
2015-08-11T02:10:06.456Z,74275
2015-08-11T02:10:18.846Z,74271
2015-08-11T02:10:31.238Z,74276
2015-08-11T02:10:43.613Z,74268
2015-08-11T02:10:56.003Z,74274
2015-08-11T02:11:08.394Z,74274
2015-08-11T02:11:20.785Z,74272
2015-08-11T02:11:33.194Z,74271
2015-08-11T02:11:45.616Z,74268
2015-08-11T02:11:58.006Z,74275
2015-08-11T02:12:10.428Z,74273
2015-08-11T02:12:22.835Z,74273
2015-08-11T02:12:35.227Z,74273
2015-08-11T02:12:47.633Z,74269
2015-08-11T02:13:00.040Z,74275
2015-08-11T02:13:12.462Z,74267
2015-08-11T02:13:24.883Z,74274
2015-08-11T02:13:37.292Z,74265
2015-08-11T02:13:49.698Z,74276
2015-08-11T02:14:02.057Z,74266
2015-08-11T02:14:14.432Z,74271
2015-08-11T02:14:26.807Z,74273
2015-08-11T02:14:39.183Z,74269
2015-08-11T02:14:51.574Z,74271
2015-08-11T02:15:03.949Z,74265
2015-08-11T02:15:16.324Z,74273
2015-08-11T02:15:28.715Z,74267
2015-08-11T02:15:40.388Z,74271
2015-08-11T02:15:52.779Z,74265
2015-08-11T02:16:04.435Z,74270
2015-08-11T02:16:16.810Z,74271
2015-08-11T02:16:29.185Z,74267
2015-08-11T02:16:41.562Z,74275
2015-08-11T02:16:53.953Z,74262
2015-08-11T02:17:06.328Z,74270
2015-08-11T02:17:18.703Z,74269
2015-08-11T02:17:31.078Z,74269
2015-08-11T02:17:43.456Z,74267
2015-08-11T02:17:55.112Z,74270
2015-08-11T02:18:07.503Z,74269
2015-08-11T02:18:19.878Z,74271
2015-08-11T02:18:32.253Z,74269
2015-08-11T02:18:44.630Z,74267
2015-08-11T02:18:57.005Z,74271
2015-08-11T02:19:09.380Z,74272
2015-08-11T02:19:21.755Z,74268
2015-08-11T02:19:34.130Z,74275
2015-08-11T02:19:46.522Z,74272
2015-08-11T02:19:58.913Z,74277
2015-08-11T02:20:11.288Z,74267
2015-08-11T02:20:23.679Z,74272
2015-08-11T02:20:36.069Z,74274
2015-08-11T02:20:48.461Z,74272
2015-08-11T02:21:00.867Z,74271
2015-08-11T02:21:13.289Z,74279
2015-08-11T02:21:25.680Z,74274
2015-08-11T02:21:38.102Z,74278
2015-08-11T02:21:50.525Z,74273
2015-08-11T02:22:02.916Z,74272
2015-08-11T02:22:15.322Z,74267
2015-08-11T02:22:27.744Z,74274
2015-08-11T02:22:40.150Z,74274
2015-08-11T02:22:52.559Z,74275
2015-08-11T02:23:04.981Z,74275
2015-08-11T02:23:17.356Z,74272
2015-08-11T02:23:29.715Z,74271
2015-08-11T02:23:42.090Z,74270
2015-08-11T02:23:54.468Z,74272
2015-08-11T02:24:06.843Z,74274
2015-08-11T02:24:19.218Z,74271
2015-08-11T02:24:31.593Z,74273
2015-08-11T02:24:43.984Z,74275
2015-08-11T02:24:56.344Z,74272
2015-08-11T02:25:08.719Z,74270
2015-08-11T02:25:21.094Z,74273
2015-08-11T02:25:33.469Z,74277
2015-08-11T02:25:45.860Z,74273
2015-08-11T02:25:58.237Z,74273
2015-08-11T02:26:10.612Z,74278
2015-08-11T02:26:22.987Z,74272
2015-08-11T02:26:35.362Z,74273
2015-08-11T02:26:47.737Z,74275
2015-08-11T02:27:00.114Z,74270
2015-08-11T02:27:12.489Z,74276
2015-08-11T02:27:24.864Z,74274
2015-08-11T02:27:37.239Z,74267
2015-08-11T02:27:49.614Z,74274
2015-08-11T02:28:01.991Z,74274
2015-08-11T02:28:14.366Z,74268
2015-08-11T02:28:26.741Z,74276
2015-08-11T02:28:39.116Z,74272
2015-08-11T02:28:51.491Z,74270
2015-08-11T02:29:03.868Z,74270
2015-08-11T02:29:16.274Z,74270
2015-08-11T02:29:28.664Z,74269
2015-08-11T02:29:41.055Z,74262
2015-08-11T02:29:53.430Z,74273
2015-08-11T02:30:05.808Z,74267
2015-08-11T02:30:18.183Z,74263
2015-08-11T02:30:30.589Z,74269
2015-08-11T02:30:42.980Z,74267
2015-08-11T02:30:55.386Z,74267
2015-08-11T02:31:07.793Z,74270
2015-08-11T02:31:20.200Z,74268
2015-08-11T02:31:32.606Z,74273
2015-08-11T02:31:45.012Z,74267
2015-08-11T02:31:57.434Z,74267
2015-08-11T02:32:09.843Z,74271
2015-08-11T02:32:22.265Z,74268
2015-08-11T02:32:34.640Z,74270
2015-08-11T02:32:47.015Z,74269
2015-08-11T02:32:59.406Z,74270
2015-08-11T02:33:11.783Z,74273
2015-08-11T02:33:24.158Z,74272
2015-08-11T02:33:36.533Z,74269
2015-08-11T02:33:48.908Z,74266
2015-08-11T02:34:01.283Z,74271
2015-08-11T02:34:12.957Z,74264
2015-08-11T02:34:25.332Z,74274
2015-08-11T02:34:37.707Z,74266
2015-08-11T02:34:50.082Z,74274
2015-08-11T02:35:02.457Z,74275
2015-08-11T02:35:14.833Z,74269
2015-08-11T02:35:27.208Z,74273
2015-08-11T02:35:39.598Z,74267
2015-08-11T02:35:51.973Z,74274
2015-08-11T02:36:04.348Z,74272
2015-08-11T02:36:16.725Z,74273
2015-08-11T02:36:29.100Z,74273
2015-08-11T02:36:41.475Z,74271
2015-08-11T02:36:53.850Z,74271
2015-08-11T02:37:06.241Z,74266
2015-08-11T02:37:18.619Z,74272
2015-08-11T02:37:30.994Z,74268
2015-08-11T02:37:43.369Z,74268
2015-08-11T02:37:55.744Z,74269
2015-08-11T02:38:07.416Z,74268
2015-08-11T02:38:19.792Z,74265
2015-08-11T02:38:32.182Z,74273
2015-08-11T02:38:44.573Z,74267
2015-08-11T02:38:56.948Z,74266
2015-08-11T02:39:09.339Z,74265